Time;durP1;ratioP1;P1;durP2;ratioP2;P2;SDS_P1;SDS_P2;PMS_P1;PMS_P2;Temp;Humidity;BMP_temperature;BMP_pressure;BME280_temperature;BME280_humidity;BME280_pressure;Samples;Min_cycle;Max_cycle;Signal;HPM_P1;HPM_P2
2021/05/02 00:01:48;;;;;;;4.78;2.20;;;;;;;;;;6922104;28;20031;-73
2021/05/02 00:05:10;;;;;;;3.80;1.75;;;;;;;;;;6921656;28;20038;-73
2021/05/02 00:08:30;;;;;;;3.90;2.08;;;;;;;;;;6920527;28;20471;-73
2021/05/02 00:11:51;;;;;;;6.40;1.58;;;;;;;;;;6895599;28;20080;-73
2021/05/02 00:15:14;;;;;;;5.25;1.85;;;;;;;;;;6921655;28;20042;-74
2021/05/02 00:18:35;;;;;;;3.05;1.80;;;;;;;;;;6920635;28;20034;-74
2021/05/02 00:21:56;;;;;;;3.83;1.80;;;;;;;;;;6920474;28;20093;-74
2021/05/02 00:25:20;;;;;;;3.28;1.92;;;;;;;;;;6919340;28;20030;-73
2021/05/02 00:28:45;;;;;;;3.65;1.77;;;;;;;;;;6960314;23;20058;-76
2021/05/02 00:32:06;;;;;;;4.22;2.08;;;;;;;;;;6881602;28;20038;-76
2021/05/02 00:35:26;;;;;;;4.68;2.33;;;;;;;;;;6894876;28;20111;-76
2021/05/02 00:38:47;;;;;;;3.03;1.80;;;;;;;;;;6894398;28;20039;-78
2021/05/02 00:42:09;;;;;;;2.33;1.63;;;;;;;;;;6894511;28;20103;-77
2021/05/02 00:45:48;;;;;;;2.78;1.75;;;;;;;;;;6888297;28;20030;-76
2021/05/02 00:49:31;;;;;;;5.35;2.30;;;;;;;;;;6893905;28;20391;-77
2021/05/02 00:52:57;;;;;;;3.38;1.70;;;;;;;;;;6894391;28;20057;-77
2021/05/02 00:56:22;;;;;;;4.10;2.17;;;;;;;;;;6894337;28;20044;-78
2021/05/02 00:59:46;;;;;;;4.00;1.75;;;;;;;;;;6893650;28;20040;-76
2021/05/02 01:03:07;;;;;;;5.10;1.88;;;;;;;;;;6893810;28;20034;-76
2021/05/02 01:06:29;;;;;;;2.67;1.60;;;;;;;;;;6893737;28;20109;-77
2021/05/02 01:09:50;;;;;;;2.70;1.65;;;;;;;;;;6894458;28;20066;-77
2021/05/02 01:13:13;;;;;;;2.58;1.65;;;;;;;;;;6893893;28;20057;-76
2021/05/02 01:16:35;;;;;;;4.50;2.22;;;;;;;;;;6893555;28;20030;-77
2021/05/02 01:19:55;;;;;;;2.00;1.60;;;;;;;;;;6891902;28;20369;-77
2021/05/02 01:23:27;;;;;;;7.25;1.98;;;;;;;;;;6892501;28;20457;-76
2021/05/02 01:26:47;;;;;;;2.03;1.30;;;;;;;;;;6893590;28;20384;-77
2021/05/02 01:30:09;;;;;;;3.80;2.13;;;;;;;;;;6893510;28;20514;-76
2021/05/02 01:33:30;;;;;;;3.92;1.88;;;;;;;;;;6893596;28;20041;-76
2021/05/02 01:36:51;;;;;;;4.47;1.80;;;;;;;;;;6893279;28;20027;-76
2021/05/02 01:40:12;;;;;;;4.05;2.00;;;;;;;;;;6891791;28;20033;-77
2021/05/02 01:43:32;;;;;;;2.90;1.60;;;;;;;;;;6893101;28;20062;-76
2021/05/02 01:46:55;;;;;;;3.58;2.05;;;;;;;;;;6892527;28;20030;-76
2021/05/02 01:50:16;;;;;;;4.45;1.70;;;;;;;;;;6892585;28;20034;-76
2021/05/02 01:53:38;;;;;;;3.35;1.48;;;;;;;;;;6892634;28;20037;-76
2021/05/02 01:56:58;;;;;;;3.28;1.48;;;;;;;;;;6892911;28;20031;-79
2021/05/02 02:00:25;;;;;;;2.10;1.48;;;;;;;;;;6893129;28;20027;-76
2021/05/02 02:03:46;;;;;;;3.72;1.60;;;;;;;;;;6892702;28;20030;-76
2021/05/02 02:07:06;;;;;;;3.15;1.50;;;;;;;;;;6892442;28;20029;-76
2021/05/02 02:10:27;;;;;;;3.83;1.40;;;;;;;;;;6893090;28;20113;-76
2021/05/02 02:13:48;;;;;;;2.10;1.42;;;;;;;;;;6892974;28;20077;-76
2021/05/02 02:17:09;;;;;;;2.17;1.55;;;;;;;;;;6892739;28;20117;-77
2021/05/02 02:20:30;;;;;;;2.25;1.58;;;;;;;;;;6892591;28;20026;-76
2021/05/02 02:23:58;;;;;;;1.95;1.63;;;;;;;;;;6891213;28;20042;-77
2021/05/02 02:27:20;;;;;;;2.85;1.80;;;;;;;;;;6892388;28;20027;-77
2021/05/02 02:30:44;;;;;;;5.57;1.65;;;;;;;;;;6892394;28;20046;-76
2021/05/02 02:34:05;;;;;;;3.65;1.70;;;;;;;;;;6891988;28;20121;-78
2021/05/02 02:37:27;;;;;;;2.30;1.70;;;;;;;;;;6892422;28;20025;-76
2021/05/02 02:40:49;;;;;;;4.95;1.70;;;;;;;;;;6891831;28;20037;-77
2021/05/02 02:44:10;;;;;;;2.33;1.73;;;;;;;;;;6892320;28;20030;-77
2021/05/02 02:47:40;;;;;;;5.32;1.58;;;;;;;;;;6892641;28;20034;-77
2021/05/02 02:51:03;;;;;;;2.15;1.52;;;;;;;;;;6891483;28;20026;-77
2021/05/02 02:54:24;;;;;;;2.00;1.33;;;;;;;;;;6892034;28;20034;-77
2021/05/02 02:57:51;;;;;;;2.45;1.70;;;;;;;;;;6893535;28;20030;-77
2021/05/02 03:01:12;;;;;;;1.75;1.40;;;;;;;;;;6896735;28;20035;-76
2021/05/02 03:04:33;;;;;;;2.63;1.58;;;;;;;;;;6897361;28;20026;-76
2021/05/02 03:07:54;;;;;;;1.55;1.45;;;;;;;;;;6896990;28;20030;-76
2021/05/02 03:11:16;;;;;;;2.40;1.52;;;;;;;;;;6895390;28;20038;-77
2021/05/02 03:14:37;;;;;;;3.05;1.60;;;;;;;;;;6896486;28;20136;-76
2021/05/02 03:18:07;;;;;;;2.00;1.30;;;;;;;;;;6897002;28;20169;-76
2021/05/02 03:21:34;;;;;;;2.35;1.48;;;;;;;;;;6889632;28;20046;-76
2021/05/02 03:24:56;;;;;;;2.45;1.52;;;;;;;;;;6897134;28;20038;-77
2021/05/02 03:28:21;;;;;;;7.78;1.80;;;;;;;;;;6895523;28;20057;-77
2021/05/02 03:31:44;;;;;;;2.38;1.50;;;;;;;;;;6896002;28;20476;-76
2021/05/02 03:35:06;;;;;;;2.72;1.48;;;;;;;;;;6894629;28;20034;-77
2021/05/02 03:38:41;;;;;;;2.55;1.50;;;;;;;;;;6896550;28;20041;-77
2021/05/02 03:42:02;;;;;;;1.85;1.50;;;;;;;;;;6895761;28;20411;-77
2021/05/02 03:45:22;;;;;;;2.85;1.40;;;;;;;;;;6895906;28;20514;-76
2021/05/02 03:48:42;;;;;;;2.05;1.45;;;;;;;;;;6896696;28;20038;-75
2021/05/02 03:52:03;;;;;;;2.45;1.45;;;;;;;;;;6898116;28;20112;-76
2021/05/02 03:55:25;;;;;;;1.88;1.40;;;;;;;;;;6895839;28;20038;-77
2021/05/02 03:58:45;;;;;;;2.38;1.30;;;;;;;;;;6894709;28;20034;-76
2021/05/02 04:02:06;;;;;;;1.90;1.20;;;;;;;;;;6895631;28;20081;-76
2021/05/02 04:05:26;;;;;;;1.90;1.40;;;;;;;;;;6895110;28;20041;-76
2021/05/02 04:08:46;;;;;;;1.95;1.50;;;;;;;;;;6895663;28;20125;-77
2021/05/02 04:12:08;;;;;;;3.28;1.20;;;;;;;;;;6894028;28;20379;-76
2021/05/02 04:15:28;;;;;;;2.20;1.35;;;;;;;;;;6895361;28;20456;-76
2021/05/02 04:18:48;;;;;;;2.42;1.45;;;;;;;;;;6895254;28;20026;-76
2021/05/02 04:22:11;;;;;;;1.98;1.40;;;;;;;;;;6894727;28;20070;-76
2021/05/02 04:25:31;;;;;;;1.35;1.20;;;;;;;;;;6895054;28;20470;-77
2021/05/02 04:28:52;;;;;;;1.48;1.25;;;;;;;;;;6895101;28;20074;-76
2021/05/02 04:32:12;;;;;;;2.35;1.30;;;;;;;;;;6895344;28;20041;-78
2021/05/02 04:35:33;;;;;;;3.13;1.63;;;;;;;;;;6895017;28;20027;-76
2021/05/02 04:38:53;;;;;;;2.08;1.35;;;;;;;;;;6895230;28;20062;-77
2021/05/02 04:42:13;;;;;;;2.72;1.42;;;;;;;;;;6894907;28;20113;-76
2021/05/02 04:45:34;;;;;;;1.83;1.48;;;;;;;;;;6895763;28;20070;-76
2021/05/02 04:48:55;;;;;;;3.38;1.77;;;;;;;;;;6894313;28;20038;-77
2021/05/02 04:52:15;;;;;;;2.08;1.20;;;;;;;;;;6894504;28;20034;-77
2021/05/02 04:55:36;;;;;;;2.22;1.50;;;;;;;;;;6894342;28;20497;-76
2021/05/02 04:58:56;;;;;;;2.28;1.25;;;;;;;;;;6894999;28;20092;-76
2021/05/02 05:02:17;;;;;;;1.88;1.50;;;;;;;;;;6894207;28;20030;-76
2021/05/02 05:05:37;;;;;;;1.63;1.20;;;;;;;;;;6894377;28;20030;-77
2021/05/02 05:08:57;;;;;;;1.77;1.40;;;;;;;;;;6894549;28;20057;-77
2021/05/02 05:12:18;;;;;;;1.33;1.23;;;;;;;;;;6894492;28;20033;-77
2021/05/02 05:15:38;;;;;;;4.28;1.48;;;;;;;;;;6894434;28;20093;-76
2021/05/02 05:18:58;;;;;;;1.33;1.17;;;;;;;;;;6893447;28;20452;-76
2021/05/02 05:22:19;;;;;;;1.45;1.20;;;;;;;;;;6893411;28;20057;-76
2021/05/02 05:25:39;;;;;;;1.75;1.35;;;;;;;;;;6893980;28;20030;-76
2021/05/02 05:29:00;;;;;;;1.40;1.30;;;;;;;;;;6892385;28;20038;-76
2021/05/02 05:32:20;;;;;;;4.57;1.30;;;;;;;;;;6891711;28;20065;-77
2021/05/02 05:35:40;;;;;;;1.73;1.15;;;;;;;;;;6895768;28;20062;-76
2021/05/02 05:39:01;;;;;;;1.00;1.00;;;;;;;;;;6893027;28;20129;-75
2021/05/02 05:42:21;;;;;;;2.25;1.10;;;;;;;;;;6892669;28;20061;-76
2021/05/02 05:45:42;;;;;;;6.43;1.52;;;;;;;;;;6891891;28;20026;-75
2021/05/02 05:49:02;;;;;;;4.07;1.25;;;;;;;;;;6892406;28;20038;-76
2021/05/02 05:52:23;;;;;;;3.65;1.70;;;;;;;;;;6892614;28;20038;-76
2021/05/02 05:55:43;;;;;;;1.20;1.05;;;;;;;;;;6892461;28;20041;-75
2021/05/02 05:59:04;;;;;;;2.15;1.25;;;;;;;;;;6892741;28;20039;-75
2021/05/02 06:02:24;;;;;;;2.00;1.27;;;;;;;;;;6892271;28;20370;-75
2021/05/02 06:05:45;;;;;;;1.30;0.98;;;;;;;;;;6897988;28;20091;-76
2021/05/02 06:09:07;;;;;;;4.07;1.30;;;;;;;;;;6895971;28;20092;-74
2021/05/02 06:12:28;;;;;;;1.02;0.95;;;;;;;;;;6892079;28;20037;-74
2021/05/02 06:15:48;;;;;;;3.35;1.13;;;;;;;;;;6893378;28;20030;-75
2021/05/02 06:19:09;;;;;;;3.63;1.33;;;;;;;;;;6884762;28;20039;-75
2021/05/02 06:22:29;;;;;;;5.93;1.30;;;;;;;;;;6887077;28;20433;-75
2021/05/02 06:25:49;;;;;;;1.42;1.15;;;;;;;;;;6892211;28;20038;-75
2021/05/02 06:29:10;;;;;;;1.27;1.13;;;;;;;;;;6889828;28;20042;-76
2021/05/02 06:32:30;;;;;;;6.32;1.50;;;;;;;;;;6890747;28;20042;-75
2021/05/02 06:35:51;;;;;;;2.38;1.20;;;;;;;;;;6884935;28;20093;-76
2021/05/02 06:39:12;;;;;;;3.35;1.45;;;;;;;;;;6893985;28;20037;-76
2021/05/02 06:42:32;;;;;;;6.53;1.80;;;;;;;;;;6895766;28;20058;-77
2021/05/02 06:45:53;;;;;;;1.65;1.42;;;;;;;;;;6900415;28;20476;-75
2021/05/02 06:49:13;;;;;;;6.43;1.42;;;;;;;;;;6890777;28;20037;-75
2021/05/02 06:52:34;;;;;;;11.07;1.30;;;;;;;;;;6891975;28;20090;-75
2021/05/02 06:55:54;;;;;;;8.13;1.48;;;;;;;;;;6897628;28;20073;-78
2021/05/02 06:59:15;;;;;;;3.30;1.58;;;;;;;;;;6896462;28;20072;-76
2021/05/02 07:02:35;;;;;;;8.20;1.35;;;;;;;;;;6894958;28;20128;-76
2021/05/02 07:05:55;;;;;;;11.00;1.80;;;;;;;;;;6891530;28;20041;-77
2021/05/02 07:09:16;;;;;;;17.63;1.85;;;;;;;;;;6908658;28;20045;-77
2021/05/02 07:12:36;;;;;;;12.40;1.30;;;;;;;;;;6898526;28;20416;-75
2021/05/02 07:15:59;;;;;;;7.70;1.85;;;;;;;;;;6896481;28;20065;-76
2021/05/02 07:19:21;;;;;;;11.70;1.92;;;;;;;;;;6896129;28;20041;-76
2021/05/02 07:22:45;;;;;;;7.00;2.03;;;;;;;;;;6893948;28;20037;-75
2021/05/02 07:26:07;;;;;;;6.53;1.52;;;;;;;;;;6894461;28;20027;-77
2021/05/02 07:29:27;;;;;;;3.28;1.50;;;;;;;;;;6889085;28;20046;-76
2021/05/02 07:32:48;;;;;;;9.85;1.80;;;;;;;;;;6895585;28;20041;-76
2021/05/02 07:36:09;;;;;;;11.07;1.35;;;;;;;;;;6895443;28;20034;-76
2021/05/02 07:39:30;;;;;;;12.98;1.52;;;;;;;;;;6896126;28;20030;-77
2021/05/02 07:42:50;;;;;;;10.57;1.45;;;;;;;;;;6890910;28;20036;-78
2021/05/02 07:46:10;;;;;;;5.60;1.20;;;;;;;;;;6895017;28;20476;-77
2021/05/02 07:49:31;;;;;;;8.43;1.15;;;;;;;;;;6895129;28;20026;-77
2021/05/02 07:52:51;;;;;;;7.55;1.20;;;;;;;;;;6895942;28;20030;-78
2021/05/02 07:56:12;;;;;;;5.38;1.48;;;;;;;;;;6895672;28;20041;-77
2021/05/02 07:59:32;;;;;;;6.30;1.38;;;;;;;;;;6891176;28;20068;-77
2021/05/02 08:02:52;;;;;;;7.30;1.20;;;;;;;;;;6889212;28;20077;-79
2021/05/02 08:06:13;;;;;;;3.35;1.10;;;;;;;;;;6890945;28;20080;-77
2021/05/02 08:09:34;;;;;;;3.28;1.15;;;;;;;;;;6893447;28;20088;-78
2021/05/02 08:12:59;;;;;;;1.80;1.13;;;;;;;;;;6893750;28;20114;-77
2021/05/02 08:16:20;;;;;;;1.20;0.82;;;;;;;;;;6893378;28;20041;-78
2021/05/02 08:19:40;;;;;;;1.23;1.00;;;;;;;;;;6892921;28;20034;-79
2021/05/02 08:23:01;;;;;;;3.28;1.20;;;;;;;;;;6892233;28;20066;-77
2021/05/02 08:26:21;;;;;;;3.92;1.27;;;;;;;;;;6896624;28;20022;-77
2021/05/02 08:29:41;;;;;;;1.30;1.00;;;;;;;;;;6888965;28;20089;-77
2021/05/02 08:33:02;;;;;;;1.27;1.00;;;;;;;;;;6889630;28;20100;-79
2021/05/02 08:36:22;;;;;;;2.45;1.05;;;;;;;;;;6892205;28;20500;-79
2021/05/02 08:39:43;;;;;;;4.38;1.30;;;;;;;;;;6894519;28;20495;-79
2021/05/02 08:43:04;;;;;;;2.63;1.30;;;;;;;;;;6888378;28;20030;-79
2021/05/02 08:46:25;;;;;;;2.08;1.00;;;;;;;;;;6892057;28;20034;-79
2021/05/02 08:49:45;;;;;;;2.80;1.20;;;;;;;;;;6890381;28;20049;-79
2021/05/02 08:53:06;;;;;;;1.20;0.93;;;;;;;;;;6893038;28;20030;-79
2021/05/02 08:56:26;;;;;;;1.15;0.88;;;;;;;;;;6891768;28;20041;-79
2021/05/02 08:59:46;;;;;;;1.67;0.90;;;;;;;;;;6892299;28;20077;-79
2021/05/02 09:03:08;;;;;;;0.82;0.80;;;;;;;;;;6892012;28;20061;-79
2021/05/02 09:06:29;;;;;;;1.92;1.10;;;;;;;;;;6890822;28;20119;-79
2021/05/02 09:09:50;;;;;;;0.80;0.80;;;;;;;;;;6891931;28;20038;-79
2021/05/02 09:13:14;;;;;;;1.70;1.15;;;;;;;;;;6892991;28;20026;-77
2021/05/02 09:16:48;;;;;;;6.22;1.20;;;;;;;;;;6888625;28;20057;-79
2021/05/02 09:20:09;;;;;;;4.32;1.38;;;;;;;;;;6891504;28;20038;-79
2021/05/02 09:23:36;;;;;;;4.45;1.33;;;;;;;;;;6891718;28;20050;-79
2021/05/02 09:27:13;;;;;;;3.15;1.27;;;;;;;;;;6890611;28;20519;-79
2021/05/02 09:30:34;;;;;;;2.25;1.33;;;;;;;;;;6892591;28;20046;-79
2021/05/02 09:34:15;;;;;;;3.13;1.40;;;;;;;;;;6890048;28;20069;-80
2021/05/02 09:37:35;;;;;;;3.42;1.25;;;;;;;;;;6887128;28;20429;-79
2021/05/02 09:40:57;;;;;;;2.35;1.10;;;;;;;;;;6891045;28;20476;-79
2021/05/02 09:44:44;;;;;;;2.25;1.45;;;;;;;;;;6890917;28;20038;-79
2021/05/02 09:48:04;;;;;;;1.83;1.20;;;;;;;;;;6892223;28;20034;-79
2021/05/02 09:51:26;;;;;;;2.10;1.10;;;;;;;;;;6887031;28;20384;-79
2021/05/02 09:54:47;;;;;;;6.07;1.10;;;;;;;;;;6892923;28;20038;-79
2021/05/02 09:58:10;;;;;;;3.33;1.20;;;;;;;;;;6893970;28;20468;-79
2021/05/02 10:01:31;;;;;;;2.80;1.48;;;;;;;;;;6891715;28;20118;-79
2021/05/02 10:04:55;;;;;;;1.20;1.08;;;;;;;;;;6894867;28;20038;-80
2021/05/02 10:08:16;;;;;;;1.10;1.00;;;;;;;;;;6890400;28;20049;-79
2021/05/02 10:11:37;;;;;;;1.27;1.10;;;;;;;;;;6892869;28;20032;-79
2021/05/02 10:14:57;;;;;;;1.40;1.08;;;;;;;;;;6892774;28;20317;-79
2021/05/02 10:18:18;;;;;;;2.35;1.20;;;;;;;;;;6890808;28;20067;-79
2021/05/02 10:21:39;;;;;;;4.30;1.35;;;;;;;;;;6893732;28;20031;-79
2021/05/02 10:25:00;;;;;;;1.35;1.15;;;;;;;;;;6893133;28;20029;-77
2021/05/02 10:28:31;;;;;;;5.68;0.95;;;;;;;;;;6892344;28;20070;-78
2021/05/02 10:31:58;;;;;;;3.92;1.30;;;;;;;;;;6890779;28;20066;-77
2021/05/02 10:35:19;;;;;;;1.55;1.10;;;;;;;;;;6888479;28;20097;-77
2021/05/02 10:39:02;;;;;;;1.75;1.23;;;;;;;;;;6890905;28;20042;-78
2021/05/02 10:42:39;;;;;;;2.45;1.00;;;;;;;;;;6889647;28;20031;-78
2021/05/02 10:45:59;;;;;;;1.17;0.80;;;;;;;;;;6890627;28;20417;-77
2021/05/02 10:49:19;;;;;;;3.33;1.17;;;;;;;;;;6890843;28;20037;-77
2021/05/02 10:52:44;;;;;;;1.88;0.77;;;;;;;;;;6879229;28;20097;-77
2021/05/02 10:56:08;;;;;;;2.88;1.10;;;;;;;;;;6891860;28;20033;-78
2021/05/02 11:00:05;;;;;;;1.52;0.90;;;;;;;;;;6891138;28;20483;-78
2021/05/02 11:03:35;;;;;;;6.53;1.27;;;;;;;;;;6889129;28;20416;-77
2021/05/02 11:06:56;;;;;;;6.70;1.25;;;;;;;;;;6886669;28;20030;-77
2021/05/02 11:10:17;;;;;;;6.55;1.10;;;;;;;;;;6875887;28;20026;-78
2021/05/02 11:13:38;;;;;;;3.33;1.10;;;;;;;;;;6890312;28;20046;-78
2021/05/02 11:16:58;;;;;;;8.18;1.23;;;;;;;;;;6889376;28;20066;-77
2021/05/02 11:20:46;;;;;;;3.92;1.23;;;;;;;;;;6896746;28;20464;-77
2021/05/02 11:24:07;;;;;;;2.03;1.20;;;;;;;;;;6889912;28;20137;-77
2021/05/02 11:27:50;;;;;;;2.65;1.20;;;;;;;;;;6898925;28;20028;-76
2021/05/02 11:31:10;;;;;;;2.83;1.35;;;;;;;;;;6888336;28;20054;-77
2021/05/02 11:34:57;;;;;;;6.47;1.48;;;;;;;;;;6893202;28;20085;-77
2021/05/02 11:38:19;;;;;;;2.30;1.33;;;;;;;;;;6884125;28;20058;-77
2021/05/02 11:42:02;;;;;;;8.50;2.20;;;;;;;;;;6896160;28;20022;-77
2021/05/02 11:45:29;;;;;;;4.53;1.60;;;;;;;;;;6893468;28;20126;-77
2021/05/02 11:48:50;;;;;;;5.60;1.95;;;;;;;;;;6890702;28;20033;-77
2021/05/02 11:52:11;;;;;;;5.45;1.88;;;;;;;;;;6892665;28;20084;-77
2021/05/02 11:55:33;;;;;;;4.53;2.17;;;;;;;;;;6893740;28;20022;-77
2021/05/02 11:59:03;;;;;;;5.35;2.53;;;;;;;;;;6896548;28;20034;-77
2021/05/02 12:02:24;;;;;;;9.68;2.72;;;;;;;;;;6895315;28;20049;-77
2021/05/02 12:05:48;;;;;;;4.25;2.10;;;;;;;;;;6895161;28;20030;-77
2021/05/02 12:09:19;;;;;;;4.03;2.20;;;;;;;;;;6893205;28;20034;-77
2021/05/02 12:12:39;;;;;;;3.13;2.03;;;;;;;;;;6895316;28;20039;-76
2021/05/02 12:16:00;;;;;;;8.75;2.95;;;;;;;;;;6896179;28;20149;-77
2021/05/02 12:19:27;;;;;;;3.05;2.63;;;;;;;;;;6896058;28;20030;-76
2021/05/02 12:22:48;;;;;;;3.95;2.45;;;;;;;;;;6888999;28;20042;-76
2021/05/02 12:26:10;;;;;;;3.70;2.30;;;;;;;;;;6894646;28;20396;-77
2021/05/02 12:29:33;;;;;;;3.78;2.42;;;;;;;;;;6883921;23;20055;-76
2021/05/02 12:32:55;;;;;;;3.60;1.88;;;;;;;;;;6841985;28;20034;-77
2021/05/02 12:36:15;;;;;;;4.28;2.53;;;;;;;;;;6842329;28;20031;-77
2021/05/02 12:39:37;;;;;;;5.30;2.88;;;;;;;;;;6844931;28;20050;-77
2021/05/02 12:42:57;;;;;;;3.55;1.98;;;;;;;;;;6840695;28;20043;-76
2021/05/02 12:46:37;;;;;;;3.40;2.10;;;;;;;;;;6841982;28;20110;-76
2021/05/02 12:50:04;;;;;;;5.93;2.00;;;;;;;;;;6839992;28;20031;-76
2021/05/02 12:53:39;;;;;;;4.32;1.80;;;;;;;;;;6841596;28;20034;-76
2021/05/02 12:57:02;;;;;;;2.55;2.00;;;;;;;;;;6842853;28;20099;-76
2021/05/02 13:00:26;;;;;;;3.15;1.50;;;;;;;;;;6839229;28;20038;-76
2021/05/02 13:03:59;;;;;;;3.90;1.85;;;;;;;;;;6839133;29;20031;-76
2021/05/02 13:07:37;;;;;;;3.13;2.00;;;;;;;;;;6839464;28;20039;-76
2021/05/02 13:10:58;;;;;;;3.30;1.73;;;;;;;;;;6838370;29;20109;-77
2021/05/02 13:14:23;;;;;;;3.13;1.58;;;;;;;;;;6840132;28;20031;-78
2021/05/02 13:18:04;;;;;;;2.13;1.70;;;;;;;;;;6837721;28;20083;-76
2021/05/02 13:21:24;;;;;;;5.65;1.80;;;;;;;;;;6831834;28;20031;-76
2021/05/02 13:25:01;;;;;;;2.33;1.52;;;;;;;;;;6845349;28;20105;-76
2021/05/02 13:28:22;;;;;;;2.78;1.52;;;;;;;;;;6840321;28;20496;-76
2021/05/02 13:31:46;;;;;;;4.22;1.65;;;;;;;;;;6840328;28;20046;-77
2021/05/02 13:35:07;;;;;;;3.67;1.50;;;;;;;;;;6844623;28;20075;-77
2021/05/02 13:38:27;;;;;;;4.55;1.45;;;;;;;;;;6840301;28;20085;-77
2021/05/02 13:41:52;;;;;;;1.85;1.35;;;;;;;;;;6849790;28;20063;-77
2021/05/02 13:45:14;;;;;;;1.30;1.20;;;;;;;;;;6836710;29;20073;-76
2021/05/02 13:48:37;;;;;;;4.15;1.25;;;;;;;;;;6846191;28;20027;-77
2021/05/02 13:51:57;;;;;;;1.75;1.48;;;;;;;;;;6831396;28;20469;-77
2021/05/02 13:55:18;;;;;;;2.45;1.35;;;;;;;;;;6838913;28;20040;-76
2021/05/02 13:58:39;;;;;;;3.38;1.30;;;;;;;;;;6840299;28;20031;-77
2021/05/02 14:02:00;;;;;;;1.48;1.30;;;;;;;;;;6839696;28;20055;-76
2021/05/02 14:05:20;;;;;;;3.42;1.10;;;;;;;;;;6839403;28;20059;-77
2021/05/02 14:08:41;;;;;;;3.25;1.25;;;;;;;;;;6839900;28;20047;-74
2021/05/02 14:12:01;;;;;;;1.13;1.02;;;;;;;;;;6844790;28;20623;-74
2021/05/02 14:15:22;;;;;;;1.55;1.23;;;;;;;;;;6844118;28;20122;-74
2021/05/02 14:18:42;;;;;;;2.60;1.40;;;;;;;;;;6844582;28;20043;-75
2021/05/02 14:22:03;;;;;;;6.35;1.27;;;;;;;;;;6836120;28;20087;-76
2021/05/02 14:25:24;;;;;;;1.30;1.20;;;;;;;;;;6839524;28;20051;-75
2021/05/02 14:28:44;;;;;;;3.20;1.20;;;;;;;;;;6837765;28;20074;-75
2021/05/02 14:32:05;;;;;;;4.38;1.38;;;;;;;;;;6841658;28;20039;-76
2021/05/02 14:35:25;;;;;;;1.52;1.17;;;;;;;;;;6842006;28;20044;-76
2021/05/02 14:38:45;;;;;;;4.50;1.50;;;;;;;;;;6837945;29;20031;-75
2021/05/02 14:42:08;;;;;;;1.63;1.13;;;;;;;;;;6837938;28;20066;-75
2021/05/02 14:45:28;;;;;;;2.08;1.20;;;;;;;;;;6838213;28;20023;-76
2021/05/02 14:48:49;;;;;;;1.88;1.20;;;;;;;;;;6838730;28;20039;-76
2021/05/02 14:52:09;;;;;;;1.48;1.13;;;;;;;;;;6839828;28;20062;-76
2021/05/02 14:55:30;;;;;;;1.45;1.10;;;;;;;;;;6842154;28;20042;-75
2021/05/02 14:58:50;;;;;;;1.40;1.27;;;;;;;;;;6843932;28;20034;-76
2021/05/02 15:02:11;;;;;;;1.25;1.00;;;;;;;;;;6843093;28;20035;-76
2021/05/02 15:05:31;;;;;;;1.35;1.20;;;;;;;;;;6842057;29;20078;-76
2021/05/02 15:08:52;;;;;;;2.28;1.13;;;;;;;;;;6842538;28;20038;-75
2021/05/02 15:12:13;;;;;;;1.17;1.08;;;;;;;;;;6836319;29;20027;-76
2021/05/02 15:15:36;;;;;;;1.23;1.08;;;;;;;;;;6845601;28;20031;-75
2021/05/02 15:18:56;;;;;;;1.65;1.05;;;;;;;;;;6844613;28;20027;-77
2021/05/02 15:22:17;;;;;;;2.28;1.17;;;;;;;;;;6838716;28;20058;-77
2021/05/02 15:25:37;;;;;;;3.80;1.23;;;;;;;;;;6842491;28;20078;-76
2021/05/02 15:28:58;;;;;;;1.90;0.90;;;;;;;;;;6839413;28;20142;-77
2021/05/02 15:32:18;;;;;;;3.33;1.10;;;;;;;;;;6834973;29;20066;-77
2021/05/02 15:35:38;;;;;;;1.52;1.00;;;;;;;;;;6834717;29;20095;-78
2021/05/02 15:38:59;;;;;;;2.58;0.95;;;;;;;;;;6840681;29;20023;-77
2021/05/02 15:42:21;;;;;;;1.35;0.95;;;;;;;;;;6838899;28;20402;-77
2021/05/02 15:45:41;;;;;;;2.55;1.23;;;;;;;;;;6841781;28;20027;-77
2021/05/02 15:49:02;;;;;;;1.25;0.98;;;;;;;;;;6840775;28;20046;-76
2021/05/02 15:52:23;;;;;;;1.70;1.00;;;;;;;;;;6841558;28;20039;-76
2021/05/02 15:55:44;;;;;;;1.00;0.85;;;;;;;;;;6841414;28;20067;-77
2021/05/02 15:59:04;;;;;;;1.77;1.20;;;;;;;;;;6842201;28;20037;-77
2021/05/02 16:02:25;;;;;;;2.28;1.00;;;;;;;;;;6841704;29;20087;-77
2021/05/02 16:05:45;;;;;;;2.00;0.90;;;;;;;;;;6840379;28;20027;-77
2021/05/02 16:09:06;;;;;;;1.10;1.00;;;;;;;;;;6840279;29;20414;-77
2021/05/02 16:12:26;;;;;;;5.68;1.25;;;;;;;;;;6839322;28;20035;-77
2021/05/02 16:15:47;;;;;;;3.80;1.10;;;;;;;;;;6835812;29;20043;-76
2021/05/02 16:19:09;;;;;;;1.10;1.00;;;;;;;;;;6843974;28;20385;-76
2021/05/02 16:22:29;;;;;;;1.00;0.90;;;;;;;;;;6839480;28;20027;-79
2021/05/02 16:25:50;;;;;;;0.90;0.90;;;;;;;;;;6847407;28;20033;-77
2021/05/02 16:29:10;;;;;;;1.85;0.90;;;;;;;;;;6852268;28;20070;-77
2021/05/02 16:32:31;;;;;;;2.85;0.98;;;;;;;;;;6847126;28;20456;-76
2021/05/02 16:35:51;;;;;;;9.10;1.00;;;;;;;;;;6848245;28;20075;-78
2021/05/02 16:39:14;;;;;;;5.32;1.40;;;;;;;;;;6839383;29;20039;-78
2021/05/02 16:42:34;;;;;;;11.18;2.75;;;;;;;;;;6839288;28;20092;-77
2021/05/02 16:45:54;;;;;;;20.05;1.52;;;;;;;;;;6840996;29;20066;-77
2021/05/02 16:49:15;;;;;;;6.63;1.40;;;;;;;;;;6840635;28;20487;-76
2021/05/02 16:52:35;;;;;;;14.85;1.95;;;;;;;;;;6836174;28;20035;-78
2021/05/02 16:55:56;;;;;;;9.48;1.65;;;;;;;;;;6846869;28;20107;-77
2021/05/02 16:59:16;;;;;;;8.32;1.52;;;;;;;;;;6840020;28;20065;-76
2021/05/02 17:02:37;;;;;;;2.92;1.20;;;;;;;;;;6838723;29;20027;-77
2021/05/02 17:05:58;;;;;;;4.68;1.15;;;;;;;;;;6850970;28;20035;-77
2021/05/02 17:09:19;;;;;;;9.35;1.45;;;;;;;;;;6840545;29;20078;-77
2021/05/02 17:12:39;;;;;;;7.40;1.60;;;;;;;;;;6838000;29;20051;-76
2021/05/02 17:16:00;;;;;;;4.30;1.30;;;;;;;;;;6835685;28;20031;-77
2021/05/02 17:19:20;;;;;;;2.88;1.20;;;;;;;;;;6837849;28;20038;-77
2021/05/02 17:22:40;;;;;;;6.53;1.42;;;;;;;;;;6839717;29;20035;-77
2021/05/02 17:26:01;;;;;;;10.55;1.08;;;;;;;;;;6843487;28;20087;-77
2021/05/02 17:29:21;;;;;;;3.28;1.33;;;;;;;;;;6840803;28;20259;-76
2021/05/02 17:32:43;;;;;;;7.60;1.33;;;;;;;;;;6840515;28;20094;-77
2021/05/02 17:36:03;;;;;;;2.05;0.90;;;;;;;;;;6840830;28;20445;-77
2021/05/02 17:39:24;;;;;;;3.75;1.10;;;;;;;;;;6840206;28;20028;-76
2021/05/02 17:42:45;;;;;;;8.10;1.42;;;;;;;;;;6844268;28;20118;-76
2021/05/02 17:46:05;;;;;;;1.83;0.98;;;;;;;;;;6840044;28;20042;-77
2021/05/02 17:49:32;;;;;;;2.13;1.00;;;;;;;;;;6844437;28;20085;-76
2021/05/02 17:52:53;;;;;;;3.92;1.02;;;;;;;;;;6838523;28;20114;-76
2021/05/02 17:56:13;;;;;;;4.32;1.27;;;;;;;;;;6839956;29;20035;-77
2021/05/02 17:59:34;;;;;;;1.17;0.90;;;;;;;;;;6840276;28;20188;-77
2021/05/02 18:02:54;;;;;;;5.10;1.15;;;;;;;;;;6840098;28;20501;-77
2021/05/02 18:06:14;;;;;;;3.70;1.20;;;;;;;;;;6839228;28;20038;-77
2021/05/02 18:09:35;;;;;;;2.33;1.13;;;;;;;;;;6839903;28;20035;-78
2021/05/02 18:12:56;;;;;;;3.20;1.23;;;;;;;;;;6838707;28;20039;-79
2021/05/02 18:16:16;;;;;;;1.77;0.93;;;;;;;;;;6839620;28;20039;-77
2021/05/02 18:19:37;;;;;;;3.78;1.25;;;;;;;;;;6839136;29;20071;-77
2021/05/02 18:22:57;;;;;;;4.05;1.50;;;;;;;;;;6839114;28;20126;-77
2021/05/02 18:26:18;;;;;;;2.47;1.08;;;;;;;;;;6839804;28;20101;-77
2021/05/02 18:29:38;;;;;;;1.58;1.10;;;;;;;;;;6844796;28;20043;-77
2021/05/02 18:33:00;;;;;;;6.07;1.13;;;;;;;;;;6846100;28;20035;-77
2021/05/02 18:36:20;;;;;;;3.10;0.90;;;;;;;;;;6844503;28;20535;-77
2021/05/02 18:39:43;;;;;;;4.63;1.08;;;;;;;;;;6844409;28;20023;-76
2021/05/02 18:43:03;;;;;;;3.30;1.00;;;;;;;;;;6843672;28;20039;-77
2021/05/02 18:46:24;;;;;;;3.13;1.20;;;;;;;;;;6844358;29;20066;-77
2021/05/02 18:49:45;;;;;;;1.33;0.85;;;;;;;;;;6844098;28;20101;-77
2021/05/02 18:53:09;;;;;;;2.58;1.20;;;;;;;;;;6841962;28;20088;-76
2021/05/02 18:56:29;;;;;;;3.40;1.27;;;;;;;;;;6841330;28;20028;-77
2021/05/02 18:59:50;;;;;;;4.65;1.02;;;;;;;;;;6839085;29;20118;-77
2021/05/02 19:03:10;;;;;;;4.93;1.50;;;;;;;;;;6837893;29;20468;-76
2021/05/02 19:06:30;;;;;;;3.28;0.85;;;;;;;;;;6840404;28;20038;-77
2021/05/02 19:09:51;;;;;;;3.15;1.13;;;;;;;;;;6839543;28;20488;-77
2021/05/02 19:13:12;;;;;;;2.88;1.15;;;;;;;;;;6839631;28;20027;-77
2021/05/02 19:16:32;;;;;;;1.00;0.90;;;;;;;;;;6840894;28;20047;-76
2021/05/02 19:19:52;;;;;;;4.45;1.23;;;;;;;;;;6842878;29;20085;-76
2021/05/02 19:23:13;;;;;;;2.92;1.10;;;;;;;;;;6843701;28;20035;-76
2021/05/02 19:26:34;;;;;;;2.22;1.20;;;;;;;;;;6843673;28;20023;-77
2021/05/02 19:29:55;;;;;;;1.70;1.10;;;;;;;;;;6843354;28;20047;-77
2021/05/02 19:33:15;;;;;;;2.00;1.05;;;;;;;;;;6843071;29;20082;-76
2021/05/02 19:36:36;;;;;;;3.95;1.50;;;;;;;;;;6843436;28;20071;-76
2021/05/02 19:39:57;;;;;;;2.45;1.05;;;;;;;;;;6840546;28;20035;-76
2021/05/02 19:43:17;;;;;;;2.78;1.23;;;;;;;;;;6840984;28;20073;-76
2021/05/02 19:46:38;;;;;;;1.40;0.90;;;;;;;;;;6842686;28;20039;-76
2021/05/02 19:49:58;;;;;;;2.75;0.85;;;;;;;;;;6842457;28;20031;-76
2021/05/02 19:53:19;;;;;;;0.80;0.80;;;;;;;;;;6842719;29;20042;-76
2021/05/02 19:56:39;;;;;;;2.25;1.20;;;;;;;;;;6842910;28;20110;-76
2021/05/02 20:00:00;;;;;;;3.97;0.98;;;;;;;;;;6842483;28;20119;-76
2021/05/02 20:03:20;;;;;;;0.85;0.82;;;;;;;;;;6842035;29;20051;-76
2021/05/02 20:06:41;;;;;;;1.10;0.80;;;;;;;;;;6841459;28;20027;-76
2021/05/02 20:10:03;;;;;;;1.35;1.00;;;;;;;;;;6840594;28;20051;-77
2021/05/02 20:13:23;;;;;;;2.00;1.10;;;;;;;;;;6842001;28;20051;-77